Time;durP1;ratioP1;P1;durP2;ratioP2;P2;SDS_P1;SDS_P2;PMS_P1;PMS_P2;Temp;Humidity;BMP_temperature;BMP_pressure;BME280_temperature;BME280_humidity;BME280_pressure;Samples;Min_cycle;Max_cycle;Signal;HPM_P1;HPM_P2
2021/07/06 00:00:29;;;;;;;2.15;1.95;;;25.60;86.70;;;;;;5090857;28;20028;-76
2021/07/06 00:02:55;;;;;;;2.15;1.65;;;25.50;86.70;;;;;;5072236;28;20042;-76
2021/07/06 00:05:21;;;;;;;1.20;1.10;;;25.50;87.20;;;;;;5090784;28;20029;-76
2021/07/06 00:07:49;;;;;;;0.82;0.82;;;25.50;87.20;;;;;;5090194;28;20081;-76
2021/07/06 00:10:17;;;;;;;2.92;1.38;;;25.50;87.20;;;;;;5090674;28;20032;-76
2021/07/06 00:12:43;;;;;;;1.30;1.20;;;25.50;87.50;;;;;;5093747;28;20024;-74
2021/07/06 00:15:11;;;;;;;1.10;1.00;;;25.50;87.60;;;;;;5094345;28;20413;-75
2021/07/06 00:17:38;;;;;;;0.90;0.90;;;25.40;87.70;;;;;;5075928;28;20036;-76
2021/07/06 00:20:09;;;;;;;0.90;0.90;;;25.20;88.50;;;;;;5094385;28;20414;-77
2021/07/06 00:22:35;;;;;;;0.85;0.85;;;25.20;89.10;;;;;;5094077;28;20107;-77
2021/07/06 00:25:02;;;;;;;1.05;0.93;;;25.20;89.20;;;;;;5094665;28;20090;-77
2021/07/06 00:27:27;;;;;;;0.75;0.75;;;25.20;89.30;;;;;;5076101;28;20044;-77
2021/07/06 00:29:53;;;;;;;1.15;1.05;;;25.10;89.60;;;;;;5094050;28;20032;-77
2021/07/06 00:32:19;;;;;;;0.95;0.95;;;25.10;89.90;;;;;;5094011;28;20118;-76
2021/07/06 00:34:44;;;;;;;0.70;0.70;;;25.10;89.70;;;;;;5075676;28;20036;-77
2021/07/06 00:37:10;;;;;;;1.40;1.30;;;25.10;89.80;;;;;;5093483;28;20039;-77
2021/07/06 00:39:36;;;;;;;0.80;0.80;;;25.00;90.10;;;;;;5073911;28;20128;-78
2021/07/06 00:42:11;;;;;;;0.80;0.80;;;25.10;90.10;;;;;;5073109;28;20036;-79
2021/07/06 00:44:38;;;;;;;0.70;0.70;;;25.00;90.10;;;;;;5073780;28;20037;-77
2021/07/06 00:47:05;;;;;;;1.58;1.08;;;25.00;90.20;;;;;;5073454;28;20025;-78
2021/07/06 00:49:31;;;;;;;0.95;0.93;;;25.00;90.20;;;;;;5073226;28;20024;-77
2021/07/06 00:51:57;;;;;;;0.95;0.93;;;25.10;90.20;;;;;;5073616;28;20036;-79
2021/07/06 00:54:23;;;;;;;1.33;1.23;;;25.00;90.30;;;;;;5073529;28;20361;-78
2021/07/06 00:56:49;;;;;;;0.80;0.80;;;25.00;90.40;;;;;;5072928;28;20563;-77
2021/07/06 00:59:15;;;;;;;0.95;0.90;;;25.00;90.50;;;;;;5072932;28;20399;-77
2021/07/06 01:01:41;;;;;;;1.75;1.65;;;25.00;90.70;;;;;;5072949;28;20491;-77
2021/07/06 01:04:07;;;;;;;0.73;0.73;;;25.00;90.70;;;;;;5072966;28;20028;-78
2021/07/06 01:06:33;;;;;;;1.83;1.60;;;24.90;90.60;;;;;;5073132;28;20025;-77
2021/07/06 01:08:59;;;;;;;1.00;1.00;;;24.90;90.80;;;;;;5073127;28;20028;-77
2021/07/06 01:11:26;;;;;;;1.20;0.98;;;25.00;90.90;;;;;;5072906;28;20044;-77
2021/07/06 01:13:51;;;;;;;1.40;1.30;;;24.90;91.00;;;;;;5072693;28;20029;-78
2021/07/06 01:16:18;;;;;;;2.60;2.15;;;24.90;91.20;;;;;;5073071;28;20062;-77
2021/07/06 01:18:44;;;;;;;1.10;1.00;;;24.80;91.20;;;;;;5072769;28;20389;-77
2021/07/06 01:21:10;;;;;;;1.50;1.20;;;24.80;91.30;;;;;;5072301;28;20558;-77
2021/07/06 01:23:36;;;;;;;1.02;1.02;;;24.80;91.40;;;;;;5072746;28;20033;-75
2021/07/06 01:26:07;;;;;;;1.83;1.73;;;24.80;91.30;;;;;;5073049;28;20028;-78
2021/07/06 01:28:34;;;;;;;4.13;1.20;;;24.80;91.60;;;;;;5072496;28;20373;-77
2021/07/06 01:31:00;;;;;;;0.80;0.80;;;24.80;91.80;;;;;;5072722;28;20115;-78
2021/07/06 01:33:30;;;;;;;2.17;2.00;;;24.80;91.70;;;;;;5072754;28;20399;-77
2021/07/06 01:36:00;;;;;;;2.20;1.80;;;24.80;91.70;;;;;;5072284;28;20032;-78
2021/07/06 01:38:27;;;;;;;0.70;0.70;;;24.70;91.80;;;;;;5081737;28;20040;-77
2021/07/06 01:40:53;;;;;;;0.70;0.70;;;24.80;91.90;;;;;;5092316;28;20028;-77
2021/07/06 01:43:19;;;;;;;1.23;1.08;;;24.80;92.00;;;;;;5092516;28;20119;-77
2021/07/06 01:45:46;;;;;;;0.93;0.90;;;24.80;92.00;;;;;;5092919;28;20078;-77
2021/07/06 01:48:12;;;;;;;1.25;1.05;;;24.80;92.00;;;;;;5092051;28;20024;-77
2021/07/06 01:50:40;;;;;;;2.47;2.28;;;24.80;92.20;;;;;;5092544;28;20047;-77
2021/07/06 01:53:10;;;;;;;0.70;0.70;;;24.70;92.40;;;;;;5088633;28;20032;-76
2021/07/06 01:55:38;;;;;;;1.17;1.08;;;24.70;92.40;;;;;;5071879;28;20587;-78
2021/07/06 01:58:06;;;;;;;1.50;1.40;;;24.70;92.50;;;;;;5071785;28;20098;-78
2021/07/06 02:00:35;;;;;;;8.15;2.55;;;24.70;92.40;;;;;;5072020;28;20108;-78
2021/07/06 02:03:02;;;;;;;0.80;0.80;;;24.70;92.50;;;;;;5071767;28;20438;-78
2021/07/06 02:05:32;;;;;;;0.82;0.82;;;24.70;92.60;;;;;;5071946;28;20052;-77
2021/07/06 02:07:58;;;;;;;1.33;1.17;;;24.70;92.70;;;;;;5071916;28;20029;-77
2021/07/06 02:10:25;;;;;;;1.88;1.35;;;24.70;92.80;;;;;;5071893;28;20109;-78
2021/07/06 02:12:52;;;;;;;1.20;1.10;;;24.70;92.90;;;;;;5071821;28;20388;-77
2021/07/06 02:15:18;;;;;;;1.10;1.02;;;24.70;93.00;;;;;;5071882;28;20032;-76
2021/07/06 02:17:46;;;;;;;1.85;1.23;;;24.70;93.00;;;;;;5071368;28;20044;-77
2021/07/06 02:20:15;;;;;;;1.48;1.38;;;24.60;93.20;;;;;;5071505;28;20032;-77
2021/07/06 02:22:43;;;;;;;1.13;1.02;;;24.60;93.30;;;;;;5071785;28;20036;-77
2021/07/06 02:25:11;;;;;;;1.42;1.33;;;24.60;93.30;;;;;;5071181;28;20056;-77
2021/07/06 02:27:37;;;;;;;1.00;0.95;;;24.60;93.50;;;;;;5071892;28;20043;-77
2021/07/06 02:30:08;;;;;;;1.52;1.42;;;24.60;93.50;;;;;;5071649;28;20434;-77
2021/07/06 02:32:34;;;;;;;1.65;1.52;;;24.70;93.50;;;;;;5071508;28;20143;-78
2021/07/06 02:35:00;;;;;;;0.80;0.80;;;24.60;93.50;;;;;;5070702;28;20458;-76
2021/07/06 02:37:25;;;;;;;1.35;1.15;;;24.60;93.50;;;;;;5053597;28;20455;-76
2021/07/06 02:39:51;;;;;;;1.20;1.10;;;24.60;93.60;;;;;;5051323;28;20568;-77
2021/07/06 02:42:17;;;;;;;1.20;1.10;;;24.60;93.60;;;;;;5051665;28;20451;-76
2021/07/06 02:44:42;;;;;;;0.70;0.70;;;24.60;93.70;;;;;;5051327;28;20480;-77
2021/07/06 02:47:09;;;;;;;0.98;0.98;;;24.70;93.60;;;;;;5051072;28;20056;-76
2021/07/06 02:49:34;;;;;;;1.30;1.20;;;24.70;93.50;;;;;;5051128;28;20043;-77
2021/07/06 02:52:00;;;;;;;1.45;1.35;;;24.70;93.70;;;;;;5051443;28;20036;-77
2021/07/06 02:54:26;;;;;;;0.60;0.60;;;24.80;93.50;;;;;;5051354;28;20028;-76
2021/07/06 02:56:51;;;;;;;1.48;1.05;;;24.80;93.60;;;;;;5050642;28;20057;-76
2021/07/06 02:59:17;;;;;;;1.02;1.00;;;24.70;93.70;;;;;;5051045;28;20155;-77
2021/07/06 03:01:43;;;;;;;0.85;0.85;;;24.70;93.90;;;;;;5033988;28;20433;-77
2021/07/06 03:04:08;;;;;;;0.80;0.80;;;24.70;93.90;;;;;;5050864;28;20041;-77
2021/07/06 03:06:34;;;;;;;0.70;0.70;;;24.80;93.70;;;;;;5051194;28;20385;-77
2021/07/06 03:09:00;;;;;;;0.98;0.90;;;24.80;93.60;;;;;;5050985;28;20044;-77
2021/07/06 03:11:26;;;;;;;1.52;1.35;;;24.80;93.60;;;;;;5051080;28;20033;-77
2021/07/06 03:13:52;;;;;;;0.80;0.80;;;24.90;93.70;;;;;;5050767;28;20447;-75
2021/07/06 03:16:18;;;;;;;1.30;1.23;;;24.80;93.80;;;;;;5051235;28;20489;-77
2021/07/06 03:18:43;;;;;;;1.55;1.30;;;24.80;93.70;;;;;;5050390;28;20503;-76
2021/07/06 03:21:09;;;;;;;1.10;1.05;;;24.60;94.00;;;;;;5051044;28;20029;-77
2021/07/06 03:23:35;;;;;;;1.27;1.17;;;24.60;94.20;;;;;;5050716;28;20104;-77
2021/07/06 03:26:01;;;;;;;0.80;0.80;;;24.80;94.00;;;;;;5051033;28;20052;-77
2021/07/06 03:28:26;;;;;;;0.70;0.70;;;24.80;94.00;;;;;;5050708;28;20060;-76
2021/07/06 03:30:52;;;;;;;0.65;0.65;;;24.90;93.90;;;;;;5050836;28;20038;-76
2021/07/06 03:33:18;;;;;;;0.75;0.75;;;25.00;94.20;;;;;;5050674;28;20048;-76
2021/07/06 03:35:44;;;;;;;0.75;0.75;;;25.00;94.30;;;;;;5051005;28;20040;-76
2021/07/06 03:38:10;;;;;;;1.80;1.60;;;24.90;94.60;;;;;;5036383;28;20045;-76
2021/07/06 03:40:36;;;;;;;0.70;0.70;;;24.90;94.90;;;;;;5070648;28;20392;-75
2021/07/06 03:43:03;;;;;;;0.70;0.70;;;24.90;95.20;;;;;;5070503;28;20033;-74
2021/07/06 03:45:29;;;;;;;0.85;0.85;;;24.80;95.40;;;;;;5070856;28;20029;-75
2021/07/06 03:47:55;;;;;;;1.08;0.98;;;24.80;95.80;;;;;;5074005;28;20117;-75
2021/07/06 03:50:23;;;;;;;1.30;1.20;;;24.70;96.10;;;;;;5074040;28;20029;-77
2021/07/06 03:52:52;;;;;;;1.25;1.15;;;24.70;96.40;;;;;;5074477;28;20548;-77
2021/07/06 03:55:19;;;;;;;1.85;1.60;;;24.70;96.70;;;;;;5074225;28;20052;-76
2021/07/06 03:57:46;;;;;;;1.20;1.10;;;24.60;96.70;;;;;;5073647;28;20055;-76
2021/07/06 04:00:14;;;;;;;1.15;1.08;;;24.70;96.80;;;;;;5074208;28;20037;-74
2021/07/06 04:02:40;;;;;;;0.90;0.88;;;24.60;96.40;;;;;;5074186;28;20375;-76
2021/07/06 04:05:08;;;;;;;1.33;1.23;;;24.70;96.80;;;;;;5073951;28;20626;-75
2021/07/06 04:07:34;;;;;;;1.30;1.20;;;24.60;97.00;;;;;;5073912;28;20029;-73
2021/07/06 04:10:00;;;;;;;1.25;1.15;;;24.60;97.20;;;;;;5074415;28;20103;-78
2021/07/06 04:12:26;;;;;;;1.27;1.17;;;24.60;97.30;;;;;;5074021;28;20464;-78
2021/07/06 04:14:51;;;;;;;0.95;0.93;;;24.60;97.20;;;;;;5073940;28;20036;-76
2021/07/06 04:17:17;;;;;;;0.70;0.70;;;24.60;97.30;;;;;;5073465;28;20060;-78
2021/07/06 04:19:43;;;;;;;0.93;0.93;;;24.60;97.40;;;;;;5073759;28;20071;-76
2021/07/06 04:22:09;;;;;;;0.85;0.85;;;24.60;97.60;;;;;;5055924;28;20036;-77
2021/07/06 04:24:35;;;;;;;0.80;0.80;;;24.60;98.00;;;;;;5073575;28;20032;-78
2021/07/06 04:27:01;;;;;;;0.70;0.70;;;24.60;98.10;;;;;;5074050;28;20041;-77
2021/07/06 04:29:27;;;;;;;1.50;1.40;;;24.70;97.90;;;;;;5073465;28;20384;-79
2021/07/06 04:31:54;;;;;;;1.15;1.02;;;24.80;97.80;;;;;;5073773;28;20472;-77
2021/07/06 04:34:21;;;;;;;1.50;1.40;;;24.80;97.80;;;;;;5073687;28;20029;-76
2021/07/06 04:36:46;;;;;;;0.80;0.80;;;24.70;97.80;;;;;;5073401;28;20094;-77
2021/07/06 04:39:13;;;;;;;0.85;0.85;;;24.80;97.80;;;;;;5062105;28;20103;-76
2021/07/06 04:41:39;;;;;;;1.25;1.13;;;24.80;98.00;;;;;;5053751;28;20482;-76
2021/07/06 04:44:05;;;;;;;1.50;1.40;;;24.70;98.20;;;;;;5053419;28;20576;-77
2021/07/06 04:46:31;;;;;;;1.25;1.15;;;24.70;98.70;;;;;;5053460;28;20025;-76
2021/07/06 04:48:57;;;;;;;0.80;0.80;;;24.60;99.00;;;;;;5053026;28;20033;-79
2021/07/06 04:51:22;;;;;;;1.40;1.08;;;24.60;99.30;;;;;;5053306;28;20030;-78
2021/07/06 04:53:48;;;;;;;4.40;1.60;;;24.70;98.70;;;;;;5053404;28;20501;-77
2021/07/06 04:56:14;;;;;;;6.45;2.33;;;24.70;98.70;;;;;;5052698;28;20056;-77
2021/07/06 04:58:40;;;;;;;1.50;1.40;;;24.80;98.40;;;;;;5052501;28;20072;-76
2021/07/06 05:01:08;;;;;;;3.20;2.00;;;24.80;98.10;;;;;;5035201;28;20107;-76
2021/07/06 05:03:34;;;;;;;8.38;1.40;;;24.90;98.20;;;;;;5035140;28;20060;-78
2021/07/06 05:06:00;;;;;;;1.20;1.10;;;24.90;98.40;;;;;;5052838;28;20413;-77
2021/07/06 05:08:26;;;;;;;0.88;0.88;;;24.90;98.30;;;;;;5034839;28;20175;-77
2021/07/06 05:10:52;;;;;;;0.60;0.60;;;24.90;98.30;;;;;;5053158;28;20124;-79
2021/07/06 05:13:18;;;;;;;0.90;0.90;;;24.90;98.50;;;;;;5052880;28;20036;-77
2021/07/06 05:15:45;;;;;;;0.80;0.80;;;25.00;98.20;;;;;;5052205;28;20366;-77
2021/07/06 05:18:11;;;;;;;0.82;0.80;;;24.80;98.40;;;;;;5034968;28;20065;-78
2021/07/06 05:20:38;;;;;;;1.10;1.00;;;25.00;98.60;;;;;;5052899;28;20041;-77
2021/07/06 05:23:04;;;;;;;0.52;0.52;;;25.00;98.40;;;;;;5052489;28;20044;-80
2021/07/06 05:25:30;;;;;;;1.10;1.00;;;25.10;98.30;;;;;;5052530;28;20033;-79
2021/07/06 05:27:56;;;;;;;1.67;1.55;;;25.20;98.20;;;;;;5034576;28;20056;-77
2021/07/06 05:30:22;;;;;;;1.55;1.45;;;25.20;97.90;;;;;;5052472;28;20078;-78
2021/07/06 05:32:47;;;;;;;1.30;1.00;;;25.40;98.30;;;;;;5052751;28;20045;-76
2021/07/06 05:35:13;;;;;;;14.63;3.88;;;25.40;98.30;;;;;;5052074;28;20029;-77
2021/07/06 05:37:40;;;;;;;2.72;2.25;;;25.40;98.10;;;;;;5052104;28;20084;-76
2021/07/06 05:40:08;;;;;;;5.40;4.90;;;25.50;97.70;;;;;;5069036;28;20285;-78
2021/07/06 05:42:34;;;;;;;4.05;3.67;;;25.60;97.80;;;;;;5072377;28;20055;-78
2021/07/06 05:45:01;;;;;;;6.65;4.35;;;25.60;97.80;;;;;;5071632;28;20062;-77
2021/07/06 05:47:27;;;;;;;3.05;2.10;;;25.60;97.30;;;;;;5072243;28;20032;-76
2021/07/06 05:49:53;;;;;;;1.80;1.58;;;25.60;97.30;;;;;;5064285;28;20034;-77
2021/07/06 05:52:18;;;;;;;1.67;1.58;;;25.70;97.40;;;;;;5033014;28;20072;-77
2021/07/06 05:54:44;;;;;;;1.63;1.52;;;25.80;96.90;;;;;;5036927;28;20091;-77
2021/07/06 05:57:10;;;;;;;1.48;1.27;;;25.80;96.80;;;;;;5042638;28;20488;-76
2021/07/06 05:59:36;;;;;;;1.70;1.17;;;25.90;97.00;;;;;;5042505;28;20037;-78
2021/07/06 06:02:02;;;;;;;3.55;1.45;;;25.90;96.70;;;;;;5040352;28;20030;-75
2021/07/06 06:04:27;;;;;;;0.80;0.80;;;26.00;96.50;;;;;;5024002;28;20078;-76
2021/07/06 06:06:53;;;;;;;2.72;1.15;;;26.00;96.90;;;;;;5041415;28;20033;-75
2021/07/06 06:09:19;;;;;;;1.50;1.35;;;26.10;96.20;;;;;;5039956;28;20044;-77
2021/07/06 06:11:45;;;;;;;1.30;1.17;;;26.20;96.10;;;;;;5041856;28;20025;-75
2021/07/06 06:14:11;;;;;;;1.00;1.00;;;26.20;95.90;;;;;;5047507;28;20116;-77
2021/07/06 06:17:21;;;;;;;1.15;1.15;;;26.20;95.80;;;;;;5034267;28;20033;-77
2021/07/06 06:19:46;;;;;;;2.17;1.90;;;26.30;96.10;;;;;;5046963;28;20041;-76
2021/07/06 06:22:12;;;;;;;3.20;2.65;;;26.40;95.70;;;;;;5025467;28;20025;-76
2021/07/06 06:24:38;;;;;;;0.75;0.75;;;26.40;93.50;;;;;;5024120;28;20499;-76
2021/07/06 06:27:04;;;;;;;1.17;1.05;;;26.10;93.80;;;;;;5041266;28;20045;-76
2021/07/06 06:29:30;;;;;;;1.52;1.15;;;26.30;94.70;;;;;;5040039;28;20025;-77
2021/07/06 06:31:55;;;;;;;5.78;1.95;;;26.50;94.90;;;;;;5033976;28;20354;-77
2021/07/06 06:34:21;;;;;;;0.65;0.65;;;26.50;93.90;;;;;;5031410;28;20037;-78
2021/07/06 06:36:47;;;;;;;0.70;0.70;;;26.50;93.80;;;;;;5031081;28;20037;-77
2021/07/06 06:39:13;;;;;;;1.23;1.13;;;26.50;93.30;;;;;;5047599;28;20044;-77
2021/07/06 06:41:39;;;;;;;1.77;1.17;;;26.30;92.90;;;;;;5071408;28;20480;-76
2021/07/06 06:44:04;;;;;;;0.60;0.60;;;26.40;93.20;;;;;;5071458;28;20035;-76
2021/07/06 06:46:30;;;;;;;2.70;1.95;;;26.50;92.70;;;;;;5071151;28;20045;-74
2021/07/06 06:49:00;;;;;;;4.13;1.17;;;26.20;91.20;;;;;;5071208;28;20039;-76
2021/07/06 06:51:26;;;;;;;0.60;0.60;;;26.00;92.00;;;;;;5036634;28;20494;-74
2021/07/06 06:53:52;;;;;;;2.15;1.08;;;26.20;92.20;;;;;;5071340;28;20043;-75
2021/07/06 06:56:18;;;;;;;2.63;1.02;;;26.30;91.80;;;;;;5071041;28;20041;-74
2021/07/06 06:58:44;;;;;;;1.40;1.30;;;26.30;91.40;;;;;;5070573;28;20052;-75
2021/07/06 07:01:10;;;;;;;1.42;1.33;;;26.50;91.00;;;;;;5053124;28;20036;-76
2021/07/06 07:03:36;;;;;;;1.10;1.00;;;26.60;90.30;;;;;;5053211;28;20036;-76
2021/07/06 07:06:01;;;;;;;0.73;0.70;;;26.60;90.50;;;;;;5070883;28;20024;-75
2021/07/06 07:08:27;;;;;;;0.73;0.73;;;26.80;90.50;;;;;;5070747;28;20427;-76
2021/07/06 07:10:53;;;;;;;1.95;1.45;;;26.70;91.10;;;;;;5052976;28;20378;-76
2021/07/06 07:13:19;;;;;;;3.35;1.17;;;26.70;92.00;;;;;;5052860;28;20127;-76
2021/07/06 07:15:44;;;;;;;1.73;1.38;;;26.80;92.00;;;;;;5070370;28;20115;-76
2021/07/06 07:18:10;;;;;;;0.63;0.63;;;26.90;92.10;;;;;;5070897;28;20028;-77
2021/07/06 07:20:36;;;;;;;2.05;0.93;;;26.90;92.70;;;;;;5072880;28;20067;-75
2021/07/06 07:23:03;;;;;;;1.10;0.85;;;27.00;91.80;;;;;;5074626;28;20036;-75
2021/07/06 07:25:32;;;;;;;1.10;1.00;;;27.00;91.40;;;;;;5074940;28;20385;-76
2021/07/06 07:27:58;;;;;;;1.00;0.93;;;27.20;91.70;;;;;;5074609;28;20044;-75
2021/07/06 07:30:24;;;;;;;1.05;0.95;;;27.20;91.30;;;;;;5074767;28;20024;-76
2021/07/06 07:32:50;;;;;;;1.00;0.95;;;27.20;90.90;;;;;;5074822;28;20033;-76
2021/07/06 07:35:17;;;;;;;0.60;0.60;;;27.20;91.10;;;;;;5074616;28;20044;-76
2021/07/06 07:37:44;;;;;;;0.73;0.73;;;27.30;90.50;;;;;;5074034;28;20135;-76
2021/07/06 07:40:11;;;;;;;1.00;1.00;;;27.30;90.60;;;;;;5060308;28;20070;-75
2021/07/06 07:42:37;;;;;;;0.77;0.77;;;27.30;90.70;;;;;;5054725;28;20028;-75
2021/07/06 07:45:04;;;;;;;0.60;0.60;;;27.40;90.80;;;;;;5036178;28;20037;-76
2021/07/06 07:47:30;;;;;;;0.73;0.73;;;27.40;90.60;;;;;;5054598;28;20053;-76
2021/07/06 07:49:56;;;;;;;6.25;2.67;;;27.50;90.70;;;;;;5054414;28;20103;-76
2021/07/06 07:52:21;;;;;;;1.95;0.85;;;27.60;90.50;;;;;;5054172;28;20029;-76
2021/07/06 07:54:47;;;;;;;0.68;0.68;;;27.60;89.90;;;;;;5054433;28;20029;-75
2021/07/06 07:57:23;;;;;;;1.65;1.15;;;27.70;88.80;;;;;;5054520;28;20037;-75
2021/07/06 07:59:53;;;;;;;1.05;0.95;;;27.70;87.90;;;;;;5053984;28;20047;-75
2021/07/06 08:02:19;;;;;;;0.60;0.60;;;27.80;87.40;;;;;;5054200;28;20035;-75
2021/07/06 08:04:45;;;;;;;0.63;0.63;;;27.80;85.70;;;;;;5053899;28;20067;-75
2021/07/06 08:07:11;;;;;;;0.82;0.82;;;27.80;84.80;;;;;;5053742;28;20025;-75
2021/07/06 08:09:37;;;;;;;1.85;1.02;;;27.70;84.40;;;;;;5054418;28;20033;-75
2021/07/06 08:12:04;;;;;;;1.60;1.27;;;27.80;84.00;;;;;;5054119;28;20042;-75
2021/07/06 08:14:30;;;;;;;0.60;0.60;;;27.90;83.40;;;;;;5053614;28;20061;-78
2021/07/06 08:16:57;;;;;;;0.80;0.80;;;28.00;83.00;;;;;;5053980;28;20064;-76
2021/07/06 08:19:24;;;;;;;1.17;1.08;;;28.20;82.40;;;;;;5035788;28;20387;-76
2021/07/06 08:21:50;;;;;;;1.52;1.10;;;28.20;82.10;;;;;;5035939;28;20037;-76
2021/07/06 08:24:16;;;;;;;1.48;1.38;;;28.10;81.70;;;;;;5054047;28;20040;-75
2021/07/06 08:26:42;;;;;;;0.50;0.50;;;28.10;82.70;;;;;;5053507;28;20055;-77
2021/07/06 08:29:08;;;;;;;1.17;1.00;;;28.20;82.50;;;;;;5053480;28;20400;-77
2021/07/06 08:31:34;;;;;;;0.93;0.85;;;28.00;81.20;;;;;;5052731;28;20641;-77
2021/07/06 08:34:00;;;;;;;1.15;0.88;;;28.10;81.00;;;;;;5053499;28;20500;-77
2021/07/06 08:36:25;;;;;;;0.77;0.77;;;28.10;80.20;;;;;;5053056;28;20488;-76
2021/07/06 08:38:51;;;;;;;0.65;0.65;;;28.20;79.70;;;;;;5037292;28;20135;-77
2021/07/06 08:41:17;;;;;;;2.08;1.75;;;28.20;79.30;;;;;;5073719;28;20032;-77
2021/07/06 08:43:43;;;;;;;0.65;0.65;;;28.20;79.30;;;;;;5073496;28;20499;-77
2021/07/06 08:46:14;;;;;;;0.55;0.55;;;28.30;78.70;;;;;;5055176;28;20056;-76
2021/07/06 08:48:40;;;;;;;0.60;0.60;;;28.40;77.80;;;;;;5055424;28;20032;-77
2021/07/06 08:51:07;;;;;;;0.57;0.57;;;28.20;77.30;;;;;;5073395;28;20036;-76
2021/07/06 08:53:32;;;;;;;0.47;0.47;;;28.10;78.30;;;;;;5073286;28;20129;-76
2021/07/06 08:55:58;;;;;;;0.60;0.57;;;28.30;77.80;;;;;;5073207;28;20044;-76
2021/07/06 08:58:25;;;;;;;0.88;0.88;;;28.50;77.60;;;;;;5073250;28;20503;-76
2021/07/06 09:00:51;;;;;;;0.70;0.70;;;28.50;77.60;;;;;;5073385;28;20033;-77
2021/07/06 09:03:17;;;;;;;0.60;0.60;;;28.30;78.00;;;;;;5073076;28;20039;-77
2021/07/06 09:05:43;;;;;;;1.48;1.25;;;28.30;78.30;;;;;;5072889;28;20114;-76
2021/07/06 09:08:14;;;;;;;0.60;0.60;;;28.20;78.80;;;;;;5054642;28;20484;-76
2021/07/06 09:10:41;;;;;;;0.68;0.68;;;28.30;79.50;;;;;;5072830;28;20032;-75
2021/07/06 09:13:32;;;;;;;0.63;0.57;;;28.30;78.80;;;;;;5054457;28;20041;-77
2021/07/06 09:15:58;;;;;;;0.82;0.82;;;28.50;77.90;;;;;;5072557;28;20036;-77
2021/07/06 09:18:33;;;;;;;0.43;0.43;;;29.00;77.40;;;;;;5054234;28;20032;-75
2021/07/06 09:21:05;;;;;;;0.55;0.55;;;29.10;76.80;;;;;;5072149;28;20040;-76
2021/07/06 09:23:35;;;;;;;0.40;0.40;;;29.40;77.10;;;;;;5072121;28;20032;-78
2021/07/06 09:26:09;;;;;;;0.80;0.70;;;29.70;76.60;;;;;;5054301;28;20048;-79
2021/07/06 09:28:38;;;;;;;0.70;0.70;;;29.90;74.50;;;;;;5053977;28;20480;-78
2021/07/06 09:31:37;;;;;;;0.95;0.82;;;29.60;75.00;;;;;;5072346;28;20047;-77
2021/07/06 09:34:08;;;;;;;0.75;0.65;;;29.90;74.10;;;;;;5053459;28;20055;-76
2021/07/06 09:36:43;;;;;;;0.55;0.52;;;29.80;73.60;;;;;;5071849;28;20384;-75
2021/07/06 09:39:23;;;;;;;0.88;0.88;;;29.60;72.70;;;;;;5069323;28;20041;-77
2021/07/06 09:41:58;;;;;;;4.28;1.88;;;29.50;73.30;;;;;;5051987;28;20516;-77
2021/07/06 09:44:28;;;;;;;2.03;1.15;;;29.80;73.00;;;;;;5051942;28;20412;-76
2021/07/06 09:46:59;;;;;;;0.70;0.63;;;30.00;72.40;;;;;;5051925;28;20029;-77
2021/07/06 09:49:29;;;;;;;0.77;0.70;;;30.20;72.60;;;;;;5051275;28;20033;-77
2021/07/06 09:51:55;;;;;;;0.50;0.50;;;30.00;70.60;;;;;;5034230;28;20115;-75
2021/07/06 09:54:29;;;;;;;0.60;0.60;;;30.20;70.60;;;;;;5051614;28;20037;-79
2021/07/06 09:57:29;;;;;;;1.50;1.17;;;30.40;70.20;;;;;;5051557;28;20049;-79
2021/07/06 10:00:03;;;;;;;0.50;0.50;;;30.20;69.40;;;;;;5051884;28;20073;-77
2021/07/06 10:02:31;;;;;;;0.88;0.70;;;29.90;70.10;;;;;;5051248;28;20068;-77
2021/07/06 10:04:58;;;;;;;1.08;1.00;;;29.60;70.70;;;;;;5051383;28;20032;-76
2021/07/06 10:07:26;;;;;;;0.77;0.77;;;30.10;70.60;;;;;;5051212;28;20469;-77
2021/07/06 10:09:53;;;;;;;0.95;0.75;;;30.30;69.70;;;;;;5051273;28;20039;-76
2021/07/06 10:12:20;;;;;;;1.77;1.23;;;30.30;71.40;;;;;;5051519;28;20041;-76
2021/07/06 10:14:47;;;;;;;0.95;0.85;;;30.40;70.30;;;;;;5050857;28;20032;-76
2021/07/06 10:17:14;;;;;;;1.48;0.63;;;30.50;70.40;;;;;;5051129;28;20477;-76
2021/07/06 10:19:42;;;;;;;1.75;1.02;;;30.30;70.00;;;;;;5051363;28;20040;-75
2021/07/06 10:22:08;;;;;;;0.47;0.47;;;30.30;69.90;;;;;;5051749;28;20032;-76
2021/07/06 10:24:42;;;;;;;0.68;0.68;;;30.20;69.70;;;;;;5034021;28;20041;-76
2021/07/06 10:27:28;;;;;;;0.57;0.57;;;30.20;70.40;;;;;;5051194;28;20040;-76
2021/07/06 10:30:17;;;;;;;1.25;0.93;;;30.20;70.40;;;;;;5050913;28;20041;-77
2021/07/06 10:32:52;;;;;;;0.65;0.50;;;30.00;69.90;;;;;;5051399;28;20032;-76
2021/07/06 10:35:39;;;;;;;4.35;1.77;;;30.00;70.40;;;;;;5051248;28;20029;-77
2021/07/06 10:38:48;;;;;;;0.65;0.65;;;30.00;70.20;;;;;;5050951;28;20064;-76
2021/07/06 10:41:39;;;;;;;1.17;1.02;;;30.50;70.50;;;;;;5069219;28;20106;-74
2021/07/06 10:44:06;;;;;;;0.43;0.43;;;30.60;68.70;;;;;;5070594;28;20036;-77
2021/07/06 10:46:38;;;;;;;2.42;0.95;;;30.50;68.70;;;;;;5053290;28;20036;-76
2021/07/06 10:49:15;;;;;;;1.23;0.88;;;30.70;67.40;;;;;;5071248;28;20059;-76
2021/07/06 10:51:41;;;;;;;0.57;0.50;;;30.50;67.00;;;;;;5071684;28;20044;-76
2021/07/06 10:54:14;;;;;;;0.60;0.60;;;30.80;66.70;;;;;;5053420;28;20037;-77
2021/07/06 10:56:51;;;;;;;1.10;1.00;;;31.10;66.30;;;;;;5070339;28;20041;-76
2021/07/06 10:59:36;;;;;;;0.82;0.82;;;31.00;66.30;;;;;;5070932;28;20120;-76
2021/07/06 11:02:04;;;;;;;0.75;0.60;;;31.30;67.20;;;;;;5071104;28;20077;-78
2021/07/06 11:04:51;;;;;;;0.63;0.63;;;31.60;65.70;;;;;;5071018;28;20036;-75
2021/07/06 11:07:29;;;;;;;1.02;0.88;;;31.10;66.70;;;;;;5052827;28;20363;-75
2021/07/06 11:09:54;;;;;;;0.60;0.52;;;30.90;66.20;;;;;;5071398;28;20116;-75
2021/07/06 11:12:22;;;;;;;0.52;0.52;;;30.70;67.50;;;;;;5071229;28;20111;-77
2021/07/06 11:14:55;;;;;;;1.48;0.93;;;30.60;67.50;;;;;;5071310;28;20025;-77
2021/07/06 11:18:04;;;;;;;0.65;0.57;;;31.10;66.40;;;;;;5070875;28;20499;-77
2021/07/06 11:20:29;;;;;;;0.70;0.68;;;30.80;66.10;;;;;;5058450;28;20073;-76
2021/07/06 11:22:57;;;;;;;4.82;2.20;;;31.10;64.90;;;;;;5070861;28;20122;-75
2021/07/06 11:25:24;;;;;;;0.73;0.73;;;31.60;64.00;;;;;;5070964;28;20116;-76
2021/07/06 11:28:13;;;;;;;1.05;0.95;;;31.60;63.00;;;;;;5070668;28;20033;-74
2021/07/06 11:30:50;;;;;;;0.73;0.73;;;31.40;63.50;;;;;;5070801;28;20061;-76
2021/07/06 11:33:19;;;;;;;0.60;0.52;;;31.20;63.80;;;;;;5070688;28;20028;-75
2021/07/06 11:35:50;;;;;;;0.30;0.30;;;30.90;63.50;;;;;;5070694;28;20029;-75
2021/07/06 11:38:17;;;;;;;1.25;1.15;;;30.80;63.30;;;;;;5052755;28;20539;-76
2021/07/06 11:40:46;;;;;;;1.38;1.23;;;30.60;63.20;;;;;;5057854;28;20491;-75
2021/07/06 11:43:18;;;;;;;1.05;0.68;;;30.40;64.30;;;;;;5050783;28;20090;-74
2021/07/06 11:46:08;;;;;;;1.77;1.30;;;30.30;64.50;;;;;;5050555;28;20065;-77
2021/07/06 11:48:36;;;;;;;4.63;0.70;;;30.20;65.00;;;;;;5023117;28;20033;-75
2021/07/06 11:51:07;;;;;;;1.17;0.73;;;30.30;64.80;;;;;;5050891;28;20385;-75
2021/07/06 11:53:39;;;;;;;0.63;0.60;;;30.90;64.70;;;;;;5032423;28;20102;-77
2021/07/06 11:56:07;;;;;;;0.52;0.50;;;31.70;63.30;;;;;;5050691;28;20045;-76
2021/07/06 11:58:35;;;;;;;1.13;0.80;;;32.10;62.10;;;;;;5032838;28;20037;-76
2021/07/06 12:01:12;;;;;;;0.50;0.50;;;32.50;61.50;;;;;;5050422;28;20393;-74
2021/07/06 12:03:39;;;;;;;0.75;0.50;;;32.70;60.50;;;;;;5050271;28;20113;-77
2021/07/06 12:06:06;;;;;;;0.60;0.60;;;32.70;60.00;;;;;;5050467;28;20037;-77
2021/07/06 12:08:37;;;;;;;0.50;0.45;;;32.50;60.00;;;;;;5053521;28;20418;-76
2021/07/06 12:11:07;;;;;;;0.38;0.38;;;31.70;60.40;;;;;;5053847;28;20041;-76
2021/07/06 12:13:42;;;;;;;0.45;0.45;;;31.70;60.70;;;;;;5053860;28;20029;-77
2021/07/06 12:16:16;;;;;;;0.32;0.32;;;32.30;60.90;;;;;;5036004;28;20057;-76
2021/07/06 12:19:01;;;;;;;0.60;0.60;;;32.20;59.20;;;;;;5053545;28;20043;-76
2021/07/06 12:21:35;;;;;;;0.88;0.63;;;32.00;60.80;;;;;;5053879;28;20060;-75
2021/07/06 12:24:05;;;;;;;0.40;0.40;;;32.50;60.10;;;;;;5053866;28;20037;-75
2021/07/06 12:26:32;;;;;;;2.80;0.98;;;32.30;59.70;;;;;;5054003;28;20061;-79
2021/07/06 12:28:58;;;;;;;0.57;0.40;;;31.90;60.30;;;;;;5035647;28;20044;-77
2021/07/06 12:31:35;;;;;;;0.73;0.50;;;31.70;61.00;;;;;;5036180;28;20032;-78
2021/07/06 12:34:05;;;;;;;0.32;0.32;;;32.50;60.90;;;;;;5053734;28;20111;-77
2021/07/06 12:36:40;;;;;;;0.93;0.75;;;32.10;60.70;;;;;;5053463;28;20056;-77
2021/07/06 12:39:47;;;;;;;0.20;0.20;;;32.00;60.90;;;;;;5035856;28;20049;-78
2021/07/06 12:42:19;;;;;;;1.10;0.65;;;32.70;59.60;;;;;;4989820;28;20042;-77
2021/07/06 12:44:50;;;;;;;2.92;1.50;;;33.10;59.20;;;;;;5033384;28;20086;-77
2021/07/06 12:47:26;;;;;;;0.57;0.45;;;33.40;59.10;;;;;;5033569;28;20367;-77
2021/07/06 12:49:59;;;;;;;0.45;0.40;;;33.40;57.70;;;;;;5033473;28;20083;-77
2021/07/06 12:52:33;;;;;;;0.85;0.47;;;33.40;57.60;;;;;;5033531;28;20028;-77
2021/07/06 12:55:14;;;;;;;0.40;0.40;;;33.00;57.80;;;;;;5032810;28;20042;-77